Mambo — WDF9146 — position and weather

sailwx.info

Track history (hours):
 
Tides and Currents Weather Stations Pressure Air Temp Water Temp Dewpoint Dewpoint Depression Visibility Wind Speed Wind Dir Waves Ship Positions

Mambo

Owner: Souto marine holdings, Coconut grove, FL. More information available from US FCC via Universal Licensing System and Coast Guard Vessel Documentation Center.

Last reported at 2017-Nov-10 20:54 UTC. Time now 2017-Dec-14 08:22 UTC.
Position N 25°42' W 080°15'.
Warning: this ship's position is 33 days out of date.

Length 33 m; draft 2.2 m.

Type: Pleasure craft. MMSI: 338405000.

Date/timePositionNaut miles runAvg speedWind from/ knotsBaromVisibWave heightAir tempDewpointWater temp
2017-Nov-10 20:54N 25°42' W 080°15'1 2.1
2017-Nov-10 20:30N 25°42' W 080°14'917.1
2017-Nov-10 20:00N 25°39' W 080°05'1419.1
2017-Nov-10 19:16N 25°40' W 079°49'519.0
2017-Nov-10 18:59N 25°41' W 079°44'919.2
2017-Nov-10 18:30N 25°41' W 079°33'14 0.3
2017-Nov-08 17:36N 25°40' W 079°49'219.4
2017-Nov-08 17:30N 25°40' W 079°51'1019.4
2017-Nov-08 17:00N 25°39' W 080°02'715.0
2017-Nov-08 16:30N 25°39' W 080°10'5 9.6
2017-Nov-08 16:00N 25°42' W 080°14'1 1.1
2017-Nov-08 15:28N 25°42' W 080°15'  
Track history (hours):
 
Tides and Currents Weather Stations Pressure Air Temp Water Temp Dewpoint Dewpoint Depression Visibility Wind Speed Wind Dir Waves Ship Positions

Mambo

Owner: Souto marine holdings, Coconut grove, FL. More information available from US FCC via Universal Licensing System and Coast Guard Vessel Documentation Center.

Last reported at 2017-Nov-10 20:54 UTC. Time now 2017-Dec-14 08:22 UTC.
Position N 25°42' W 080°15'.
Warning: this ship's position is 33 days out of date.

Length 33 m; draft 2.2 m.

Type: Pleasure craft. MMSI: 338405000.

Date/timePositionNaut miles runAvg speedWind from/ knotsBaromVisibWave heightAir tempDewpointWater temp
2017-Nov-10 20:54N 25°42' W 080°15'1 2.1
2017-Nov-10 20:30N 25°42' W 080°14'917.1
2017-Nov-10 20:00N 25°39' W 080°05'1419.1
2017-Nov-10 19:16N 25°40' W 079°49'519.0
2017-Nov-10 18:59N 25°41' W 079°44'919.2
2017-Nov-10 18:30N 25°41' W 079°33'14 0.3
2017-Nov-08 17:36N 25°40' W 079°49'219.4
2017-Nov-08 17:30N 25°40' W 079°51'1019.4
2017-Nov-08 17:00N 25°39' W 080°02'715.0
2017-Nov-08 16:30N 25°39' W 080°10'5 9.6
2017-Nov-08 16:00N 25°42' W 080°14'1 1.1
2017-Nov-08 15:28N 25°42' W 080°15'  

Dump ship's entire track history